createdAt,value
2022-07-29T00:00:17.414Z,6.50
2022-07-29T00:03:04.306Z,6.70
2022-07-29T00:05:32.071Z,5.50
2022-07-29T00:07:59.630Z,6.00
2022-07-29T00:10:27.205Z,4.90
2022-07-29T00:12:54.758Z,8.40
2022-07-29T00:15:23.168Z,7.50
2022-07-29T00:17:51.252Z,5.10
2022-07-29T00:20:18.996Z,5.30
2022-07-29T00:22:46.745Z,5.10
2022-07-29T00:25:14.429Z,3.60
2022-07-29T00:27:42.209Z,5.20
2022-07-29T00:30:10.173Z,5.60
2022-07-29T00:32:37.805Z,4.60
2022-07-29T00:35:25.615Z,5.80
2022-07-29T00:37:53.239Z,6.00
2022-07-29T00:40:23.582Z,6.20
2022-07-29T00:42:53.337Z,4.90
2022-07-29T00:45:22.962Z,5.00
2022-07-29T00:47:51.229Z,6.30
2022-07-29T00:50:19.301Z,4.20
2022-07-29T00:52:47.545Z,6.50
2022-07-29T00:55:16.990Z,5.50
2022-07-29T00:57:46.475Z,6.50
2022-07-29T01:00:19.718Z,5.50
2022-07-29T01:02:49.250Z,3.90
2022-07-29T01:05:24.169Z,6.60
2022-07-29T01:07:55.234Z,5.20
2022-07-29T01:10:25.979Z,6.10
2022-07-29T01:12:57.538Z,5.20
2022-07-29T01:15:25.925Z,5.50
2022-07-29T01:18:22.071Z,7.10
2022-07-29T01:21:13.340Z,4.30
2022-07-29T01:24:12.777Z,4.00
2022-07-29T01:26:49.155Z,7.20
2022-07-29T01:29:46.172Z,6.10
2022-07-29T01:32:28.456Z,4.50
2022-07-29T01:35:03.033Z,4.50
2022-07-29T01:37:44.013Z,5.80
2022-07-29T01:40:30.053Z,4.40
2022-07-29T01:43:04.200Z,5.40
2022-07-29T01:45:41.777Z,5.60
2022-07-29T01:48:32.660Z,7.50
2022-07-29T01:51:13.663Z,4.30
2022-07-29T01:53:54.512Z,5.80
2022-07-29T01:56:27.143Z,7.00
2022-07-29T01:58:56.793Z,6.80
2022-07-29T02:01:28.373Z,5.90
2022-07-29T02:03:58.188Z,5.10
2022-07-29T02:06:28.241Z,5.20
2022-07-29T02:08:59.658Z,5.60
2022-07-29T02:11:27.723Z,7.60
2022-07-29T02:13:59.799Z,4.00
2022-07-29T02:16:31.819Z,6.40
2022-07-29T02:19:03.201Z,5.00
2022-07-29T02:21:33.063Z,6.10
2022-07-29T02:24:03.587Z,5.50
2022-07-29T02:26:34.621Z,7.20
2022-07-29T02:29:03.429Z,5.00
2022-07-29T02:31:37.618Z,4.60
2022-07-29T02:34:09.869Z,3.80
2022-07-29T02:36:38.767Z,6.30
2022-07-29T02:39:10.618Z,5.10
2022-07-29T02:41:49.498Z,4.50
2022-07-29T02:44:21.964Z,5.00
2022-07-29T02:47:13.827Z,6.40
2022-07-29T02:49:58.964Z,3.20
2022-07-29T02:52:34.834Z,3.90
2022-07-29T02:55:20.277Z,5.10
2022-07-29T02:57:56.071Z,4.90
2022-07-29T03:00:29.781Z,4.10
2022-07-29T03:03:02.877Z,3.80
2022-07-29T03:05:33.321Z,4.10
2022-07-29T03:08:07.599Z,3.90
2022-07-29T03:10:38.778Z,5.40
2022-07-29T03:13:08.423Z,3.80
2022-07-29T03:15:37.495Z,4.50
2022-07-29T03:18:07.507Z,5.40
2022-07-29T03:20:35.288Z,4.60
2022-07-29T03:23:03.223Z,5.60
2022-07-29T03:25:32.077Z,4.40
2022-07-29T03:28:00.709Z,7.10
2022-07-29T03:30:29.566Z,6.00
2022-07-29T03:32:58.847Z,4.60
2022-07-29T03:35:26.708Z,3.50
2022-07-29T03:37:54.384Z,4.90
2022-07-29T03:40:47.634Z,6.70
2022-07-29T03:43:19.634Z,4.70
2022-07-29T03:45:54.490Z,4.20
2022-07-29T03:48:26.901Z,6.80
2022-07-29T03:50:54.603Z,4.60
2022-07-29T03:53:22.917Z,5.30
2022-07-29T03:55:55.957Z,6.50
2022-07-29T03:58:27.193Z,4.50
2022-07-29T04:00:56.900Z,4.50
2022-07-29T04:03:24.850Z,3.80
2022-07-29T04:06:04.433Z,3.20
2022-07-29T04:08:33.160Z,3.90
2022-07-29T04:11:02.842Z,3.30
2022-07-29T04:13:31.551Z,9.50
2022-07-29T04:15:59.899Z,5.60
2022-07-29T04:18:28.616Z,5.60
2022-07-29T04:20:56.247Z,6.50
2022-07-29T04:23:23.893Z,3.50
2022-07-29T04:25:51.528Z,5.30
2022-07-29T04:28:19.377Z,4.20
2022-07-29T04:30:47.071Z,5.00
2022-07-29T04:33:14.823Z,4.30
2022-07-29T04:35:49.883Z,6.50
2022-07-29T04:38:20.000Z,4.30
2022-07-29T04:40:47.748Z,6.10
2022-07-29T04:43:22.405Z,3.60
2022-07-29T04:45:50.589Z,4.80
2022-07-29T04:48:18.199Z,4.30
2022-07-29T04:50:45.781Z,4.90
2022-07-29T04:53:13.411Z,4.70
2022-07-29T04:55:41.228Z,3.30
2022-07-29T04:58:09.075Z,4.20
2022-07-29T05:00:37.029Z,3.40
2022-07-29T05:03:05.216Z,4.60
2022-07-29T05:05:33.051Z,5.70
2022-07-29T05:08:00.633Z,5.30
2022-07-29T05:10:28.403Z,2.70
2022-07-29T05:12:56.106Z,3.60
2022-07-29T05:15:23.722Z,3.90
2022-07-29T05:17:51.411Z,5.20
2022-07-29T05:20:19.843Z,4.10
2022-07-29T05:22:47.610Z,3.30
2022-07-29T05:25:15.311Z,6.60
2022-07-29T05:27:42.953Z,3.90
2022-07-29T05:30:11.085Z,2.90
2022-07-29T05:32:38.957Z,3.10
2022-07-29T05:35:07.534Z,3.80
2022-07-29T05:37:35.444Z,4.80
2022-07-29T05:40:04.872Z,3.50
2022-07-29T05:42:32.660Z,3.40
2022-07-29T05:45:00.645Z,4.00
2022-07-29T05:47:28.689Z,4.80
2022-07-29T05:49:56.382Z,4.50
2022-07-29T05:52:24.847Z,4.50
2022-07-29T05:54:52.570Z,3.00
2022-07-29T05:57:23.486Z,3.50
2022-07-29T05:59:52.500Z,5.60
2022-07-29T06:02:20.470Z,4.50
2022-07-29T06:04:48.283Z,4.70
2022-07-29T06:07:17.262Z,4.90
2022-07-29T06:09:45.029Z,7.90
2022-07-29T06:12:12.714Z,6.20
2022-07-29T06:14:41.282Z,4.60
2022-07-29T06:17:09.106Z,3.10
2022-07-29T06:19:37.454Z,3.00
2022-07-29T06:22:05.578Z,3.80
2022-07-29T06:24:33.308Z,2.20
2022-07-29T06:27:01.089Z,3.70
2022-07-29T06:29:28.755Z,3.60
2022-07-29T06:31:56.450Z,6.00
2022-07-29T06:34:24.100Z,3.70
2022-07-29T06:36:53.669Z,3.50
2022-07-29T06:39:22.383Z,2.90
2022-07-29T06:41:51.628Z,5.50
2022-07-29T06:44:20.160Z,4.10
2022-07-29T06:46:50.812Z,9.90
2022-07-29T06:49:18.541Z,4.10
2022-07-29T06:51:46.358Z,3.70
2022-07-29T06:54:14.000Z,3.90
2022-07-29T06:56:42.812Z,5.00
2022-07-29T06:59:13.284Z,6.90
2022-07-29T07:01:44.038Z,2.80
2022-07-29T07:04:13.290Z,2.50
2022-07-29T07:06:41.199Z,4.50
2022-07-29T07:09:09.255Z,5.00
2022-07-29T07:11:36.957Z,7.30
2022-07-29T07:14:04.761Z,4.20
2022-07-29T07:16:33.312Z,4.50
2022-07-29T07:19:01.857Z,4.90
2022-07-29T07:21:31.193Z,5.20
2022-07-29T07:24:00.468Z,3.30
2022-07-29T07:26:29.070Z,7.10
2022-07-29T07:28:56.921Z,4.80
2022-07-29T07:31:24.721Z,5.80
2022-07-29T07:33:54.352Z,5.40
2022-07-29T07:36:23.379Z,4.70
2022-07-29T07:38:54.529Z,3.90
2022-07-29T07:41:23.301Z,4.80
2022-07-29T07:43:50.976Z,4.40
2022-07-29T07:46:18.882Z,4.30
2022-07-29T07:48:46.557Z,6.70
2022-07-29T07:51:14.268Z,2.80
2022-07-29T07:53:42.233Z,5.90
2022-07-29T07:56:11.799Z,4.50
2022-07-29T07:58:40.672Z,4.20
2022-07-29T08:01:10.614Z,4.70
2022-07-29T08:03:38.917Z,5.60
2022-07-29T08:06:07.081Z,7.70
2022-07-29T08:08:34.853Z,5.50
2022-07-29T08:11:09.193Z,4.90
2022-07-29T08:13:39.495Z,6.40
2022-07-29T08:16:16.334Z,6.40
2022-07-29T08:18:46.465Z,4.60
2022-07-29T08:21:16.492Z,3.10
2022-07-29T08:23:59.765Z,4.50
2022-07-29T08:26:29.613Z,6.10
2022-07-29T08:28:57.399Z,4.70
2022-07-29T08:31:25.260Z,6.10
2022-07-29T08:33:53.072Z,4.70
2022-07-29T08:36:22.026Z,4.70
2022-07-29T08:38:50.626Z,4.70
2022-07-29T08:41:20.378Z,4.40
2022-07-29T08:43:50.287Z,6.40
2022-07-29T08:46:18.815Z,9.30
2022-07-29T08:48:48.109Z,8.70
2022-07-29T08:51:19.537Z,5.40
2022-07-29T08:53:50.425Z,5.40
2022-07-29T08:56:20.327Z,4.30
2022-07-29T08:58:52.324Z,4.90
2022-07-29T09:01:35.960Z,6.20
2022-07-29T09:04:13.398Z,8.00
2022-07-29T09:06:47.171Z,8.10
2022-07-29T09:09:15.700Z,5.20
2022-07-29T09:11:44.426Z,5.10
2022-07-29T09:14:14.519Z,6.80
2022-07-29T09:16:57.352Z,4.30
2022-07-29T09:19:30.884Z,4.90
2022-07-29T09:22:03.130Z,5.60
2022-07-29T09:24:44.816Z,5.60
2022-07-29T09:27:29.888Z,5.40
2022-07-29T09:30:11.831Z,4.60
2022-07-29T09:32:57.405Z,4.00
2022-07-29T09:35:27.469Z,6.50
2022-07-29T09:37:55.763Z,5.00
2022-07-29T09:40:29.223Z,5.90
2022-07-29T09:42:58.298Z,6.10
2022-07-29T09:45:34.669Z,6.60
2022-07-29T09:48:25.660Z,5.80
2022-07-29T09:50:53.625Z,5.30
2022-07-29T09:53:47.507Z,5.60
2022-07-29T09:56:15.318Z,4.20
2022-07-29T09:58:42.953Z,7.10
2022-07-29T10:01:10.797Z,6.50
2022-07-29T10:03:53.259Z,4.50
2022-07-29T10:06:20.961Z,4.90
2022-07-29T10:08:50.548Z,5.70
2022-07-29T10:11:20.029Z,3.90
2022-07-29T10:13:49.625Z,4.10
2022-07-29T10:16:18.952Z,4.70
2022-07-29T10:18:47.931Z,7.50
2022-07-29T10:21:35.458Z,5.10
2022-07-29T10:24:07.037Z,6.00
2022-07-29T10:26:43.489Z,6.40
2022-07-29T10:29:11.093Z,6.90
2022-07-29T10:32:17.754Z,5.00
2022-07-29T10:35:17.156Z,8.20
2022-07-29T10:38:14.865Z,6.40
2022-07-29T10:41:24.521Z,5.00
2022-07-29T10:43:56.399Z,7.70
2022-07-29T10:46:25.529Z,5.40
2022-07-29T10:49:18.103Z,9.80
2022-07-29T10:52:08.395Z,5.30
2022-07-29T10:54:47.378Z,6.70
2022-07-29T10:57:53.511Z,5.00
2022-07-29T11:00:18.649Z,6.90
2022-07-29T11:02:52.266Z,6.20
2022-07-29T11:05:22.105Z,5.50
2022-07-29T11:08:19.601Z,6.60
2022-07-29T11:10:50.709Z,5.20
2022-07-29T11:13:49.402Z,6.80
2022-07-29T11:16:23.049Z,4.90
2022-07-29T11:19:11.334Z,5.40
2022-07-29T11:21:53.966Z,6.10
2022-07-29T11:24:32.042Z,7.50
2022-07-29T11:27:20.689Z,6.70
2022-07-29T11:30:01.141Z,4.40
2022-07-29T11:32:42.001Z,5.00
2022-07-29T11:35:17.695Z,6.50
2022-07-29T11:38:28.029Z,5.00
2022-07-29T11:41:30.208Z,5.10
2022-07-29T11:44:01.705Z,6.80
2022-07-29T11:46:51.301Z,4.80
2022-07-29T11:49:32.383Z,7.90
2022-07-29T11:52:04.910Z,7.50
2022-07-29T11:54:57.182Z,6.30
2022-07-29T11:57:36.062Z,7.40
2022-07-29T12:00:12.353Z,8.60
2022-07-29T12:05:51.953Z,16.00
2022-07-29T12:08:23.322Z,8.50
2022-07-29T12:10:52.567Z,5.50
2022-07-29T12:13:22.643Z,5.50
2022-07-29T12:16:05.640Z,4.80
2022-07-29T12:18:33.779Z,7.50
2022-07-29T12:21:04.929Z,8.50
2022-07-29T12:23:34.915Z,8.70
2022-07-29T12:26:10.621Z,7.90
2022-07-29T12:28:39.846Z,9.20
2022-07-29T12:31:43.236Z,9.10
2022-07-29T12:34:03.477Z,9.50
2022-07-29T12:36:31.383Z,8.90
2022-07-29T12:38:59.176Z,11.00
2022-07-29T12:41:30.060Z,9.10
2022-07-29T12:43:57.863Z,8.10
2022-07-29T12:46:25.474Z,5.70
2022-07-29T12:48:55.857Z,8.10
2022-07-29T12:51:40.514Z,9.90
2022-07-29T12:54:15.144Z,11.90
2022-07-29T12:56:45.804Z,7.80
2022-07-29T12:59:23.289Z,6.30
2022-07-29T13:01:54.070Z,9.00
2022-07-29T13:04:33.441Z,7.10
2022-07-29T13:07:08.353Z,10.10
2022-07-29T13:09:42.106Z,7.50
2022-07-29T13:12:13.567Z,7.40
2022-07-29T13:14:45.968Z,7.50
2022-07-29T13:17:21.681Z,10.10
2022-07-29T13:20:10.365Z,8.30
2022-07-29T13:22:38.034Z,8.80
2022-07-29T13:25:07.650Z,9.10
2022-07-29T13:27:38.303Z,7.80
2022-07-29T13:30:09.956Z,10.10
2022-07-29T13:32:38.697Z,5.80
2022-07-29T13:35:09.302Z,6.90
2022-07-29T13:37:39.554Z,7.20
2022-07-29T13:40:12.430Z,10.70
2022-07-29T13:42:40.931Z,9.50
2022-07-29T13:45:10.491Z,9.10
2022-07-29T13:47:39.055Z,13.70
2022-07-29T13:50:10.866Z,11.80
2022-07-29T13:52:39.229Z,9.60
2022-07-29T13:55:08.257Z,8.90
2022-07-29T13:57:36.499Z,10.30
2022-07-29T14:00:05.136Z,12.60
2022-07-29T14:02:34.108Z,9.50
2022-07-29T14:05:06.229Z,9.50
2022-07-29T14:07:35.962Z,7.60
2022-07-29T14:10:05.144Z,7.40
2022-07-29T14:12:33.067Z,7.10
2022-07-29T14:15:00.756Z,10.00
2022-07-29T14:17:28.393Z,8.40
2022-07-29T14:19:56.025Z,11.70
2022-07-29T14:22:25.594Z,7.30
2022-07-29T14:24:53.607Z,6.20
2022-07-29T14:27:37.720Z,6.60
2022-07-29T14:30:08.261Z,9.90
2022-07-29T14:32:35.885Z,10.50
2022-07-29T14:35:03.895Z,8.40
2022-07-29T14:37:39.822Z,8.40
2022-07-29T14:40:10.710Z,8.80
2022-07-29T14:42:39.911Z,7.50
2022-07-29T14:45:10.263Z,9.20
2022-07-29T14:47:39.429Z,8.60
2022-07-29T14:50:08.535Z,8.10
2022-07-29T14:52:36.542Z,8.00
2022-07-29T14:55:06.082Z,8.30
2022-07-29T14:57:49.460Z,10.00
2022-07-29T15:00:18.373Z,10.10
2022-07-29T15:03:01.328Z,7.90
2022-07-29T15:05:30.643Z,12.10
2022-07-29T15:08:00.246Z,9.30
2022-07-29T15:10:28.366Z,9.60
2022-07-29T15:12:57.512Z,8.50
2022-07-29T15:15:25.787Z,8.80
2022-07-29T15:17:53.395Z,9.80
2022-07-29T15:20:22.226Z,12.30
2022-07-29T15:22:49.824Z,9.50
2022-07-29T15:25:17.613Z,9.80
2022-07-29T15:27:52.145Z,9.60
2022-07-29T15:30:33.637Z,11.30
2022-07-29T15:33:04.251Z,9.70
2022-07-29T15:35:33.523Z,9.30
2022-07-29T15:38:08.936Z,13.10
2022-07-29T15:40:40.008Z,11.40
2022-07-29T15:43:08.286Z,10.80
2022-07-29T15:45:40.470Z,9.20
2022-07-29T15:48:14.692Z,11.10
2022-07-29T15:50:42.928Z,11.10
2022-07-29T15:53:15.288Z,9.10
2022-07-29T15:55:43.058Z,10.60
2022-07-29T15:58:12.497Z,9.20
2022-07-29T16:00:40.267Z,8.40
2022-07-29T16:03:08.440Z,9.00
2022-07-29T16:05:36.100Z,9.00
2022-07-29T16:08:05.829Z,9.60
2022-07-29T16:10:33.654Z,9.90
2022-07-29T16:13:01.825Z,10.00
2022-07-29T16:15:29.490Z,11.00
2022-07-29T16:17:57.088Z,8.70
2022-07-29T16:20:24.849Z,9.50
2022-07-29T16:22:52.492Z,7.40
2022-07-29T16:25:20.491Z,11.50
2022-07-29T16:27:48.170Z,9.30
2022-07-29T16:30:15.835Z,10.10
2022-07-29T16:32:43.483Z,10.70
2022-07-29T16:35:11.839Z,12.50
2022-07-29T16:37:39.573Z,7.20
2022-07-29T16:40:11.632Z,9.50
2022-07-29T16:42:47.558Z,7.40
2022-07-29T16:45:21.179Z,10.30
2022-07-29T16:47:49.457Z,9.60
2022-07-29T16:50:17.956Z,10.90
2022-07-29T16:52:45.627Z,8.80
2022-07-29T16:55:13.238Z,8.10
2022-07-29T16:57:42.802Z,12.60
2022-07-29T17:00:11.463Z,13.90
2022-07-29T17:02:39.329Z,10.00
2022-07-29T17:05:08.384Z,11.30
2022-07-29T17:07:36.776Z,11.80
2022-07-29T17:10:08.097Z,10.00
2022-07-29T17:12:39.592Z,12.90
2022-07-29T17:15:11.345Z,11.80
2022-07-29T17:17:54.905Z,15.10
2022-07-29T17:20:24.068Z,11.30
2022-07-29T17:22:51.871Z,10.90
2022-07-29T17:25:21.519Z,8.10
2022-07-29T17:27:50.837Z,10.80
2022-07-29T17:30:18.768Z,11.30
2022-07-29T17:32:46.536Z,9.60
2022-07-29T17:35:32.953Z,12.70
2022-07-29T17:38:00.659Z,13.10
2022-07-29T17:40:28.304Z,9.60
2022-07-29T17:42:55.941Z,9.50
2022-07-29T17:45:23.621Z,10.30
2022-07-29T17:47:51.210Z,10.50
2022-07-29T17:50:18.756Z,15.50
2022-07-29T17:52:46.371Z,9.90
2022-07-29T17:55:14.141Z,9.40
2022-07-29T17:57:42.307Z,8.90
2022-07-29T18:00:10.830Z,7.40
2022-07-29T18:02:38.667Z,9.70
2022-07-29T18:05:06.791Z,9.80
2022-07-29T18:07:34.535Z,10.00
2022-07-29T18:10:02.182Z,9.50
2022-07-29T18:12:29.891Z,8.50
2022-07-29T18:14:57.500Z,10.80
2022-07-29T18:17:52.794Z,11.40
2022-07-29T18:20:13.576Z,10.10
2022-07-29T18:22:41.660Z,9.10
2022-07-29T18:25:09.766Z,8.20
2022-07-29T18:27:38.074Z,11.00
2022-07-29T18:30:07.313Z,9.50
2022-07-29T18:32:35.137Z,14.00
2022-07-29T18:35:05.221Z,8.40
2022-07-29T18:38:01.193Z,9.80
2022-07-29T18:40:26.470Z,9.50
2022-07-29T18:42:57.528Z,10.80
2022-07-29T18:45:28.528Z,9.10
2022-07-29T18:47:57.144Z,7.80
2022-07-29T18:50:29.270Z,10.60
2022-07-29T18:52:59.010Z,9.90
2022-07-29T18:55:27.181Z,7.70
2022-07-29T18:57:57.234Z,11.20
2022-07-29T19:00:26.986Z,10.80
2022-07-29T19:02:55.026Z,9.70
2022-07-29T19:05:23.951Z,9.70
2022-07-29T19:07:52.057Z,8.50
2022-07-29T19:10:19.908Z,9.10
2022-07-29T19:12:47.699Z,8.90
2022-07-29T19:15:20.270Z,9.80
2022-07-29T19:17:48.849Z,7.90
2022-07-29T19:20:16.791Z,11.30
2022-07-29T19:22:45.002Z,8.50
2022-07-29T19:25:12.665Z,10.00
2022-07-29T19:27:41.487Z,9.80
2022-07-29T19:30:09.729Z,8.90
2022-07-29T19:32:38.016Z,10.30
2022-07-29T19:35:24.799Z,9.40
2022-07-29T19:37:57.765Z,10.80
2022-07-29T19:40:27.261Z,13.20
2022-07-29T19:42:56.384Z,10.50
2022-07-29T19:45:25.776Z,12.20
2022-07-29T19:47:57.720Z,10.00
2022-07-29T19:50:29.449Z,13.40
2022-07-29T19:52:58.048Z,11.00
2022-07-29T19:55:26.121Z,10.80
2022-07-29T19:57:53.899Z,9.80
2022-07-29T20:00:23.850Z,8.40
2022-07-29T20:02:52.461Z,12.30
2022-07-29T20:05:20.221Z,7.00
2022-07-29T20:07:47.874Z,11.00
2022-07-29T20:10:15.557Z,8.50
2022-07-29T20:12:43.265Z,9.40
2022-07-29T20:15:16.275Z,10.10
2022-07-29T20:17:44.573Z,7.70
2022-07-29T20:20:12.994Z,11.70
2022-07-29T20:22:40.767Z,11.00
2022-07-29T20:25:12.135Z,9.30
2022-07-29T20:27:40.709Z,8.90
2022-07-29T20:30:09.381Z,7.60
2022-07-29T20:32:40.526Z,7.20
2022-07-29T20:35:10.048Z,7.80
2022-07-29T20:37:56.213Z,10.30
2022-07-29T20:40:26.560Z,8.70
2022-07-29T20:42:55.756Z,7.40
2022-07-29T20:45:24.302Z,9.20
2022-07-29T20:47:52.581Z,10.90
2022-07-29T20:50:24.115Z,7.80
2022-07-29T20:52:52.955Z,7.60
2022-07-29T20:55:21.124Z,6.70
2022-07-29T20:57:48.906Z,7.10
2022-07-29T21:00:16.830Z,8.00
2022-07-29T21:02:44.498Z,7.90
2022-07-29T21:05:12.369Z,7.90
2022-07-29T21:07:39.946Z,8.60
2022-07-29T21:10:08.385Z,7.00
2022-07-29T21:12:36.403Z,6.70
2022-07-29T21:15:06.523Z,9.90
2022-07-29T21:17:36.145Z,7.80
2022-07-29T21:20:06.770Z,8.00
2022-07-29T21:22:34.510Z,7.20
2022-07-29T21:25:03.054Z,9.60
2022-07-29T21:27:49.762Z,8.50
2022-07-29T21:30:18.038Z,9.50
2022-07-29T21:32:45.713Z,7.80
2022-07-29T21:35:30.269Z,8.60
2022-07-29T21:38:00.924Z,8.80
2022-07-29T21:40:30.075Z,7.20
2022-07-29T21:42:58.015Z,9.50
2022-07-29T21:45:25.612Z,8.40
2022-07-29T21:47:53.158Z,7.80
2022-07-29T21:50:20.903Z,9.30
2022-07-29T21:52:48.574Z,6.70
2022-07-29T21:55:16.287Z,11.70
2022-07-29T21:57:46.882Z,10.40
2022-07-29T22:00:15.750Z,6.90
2022-07-29T22:02:43.640Z,8.90
2022-07-29T22:05:12.509Z,9.80
2022-07-29T22:07:54.173Z,9.90
2022-07-29T22:10:23.297Z,8.10
2022-07-29T22:12:53.106Z,7.30
2022-07-29T22:15:21.412Z,8.20
2022-07-29T22:17:49.251Z,6.80
2022-07-29T22:20:17.726Z,8.70
2022-07-29T22:22:45.873Z,7.20
2022-07-29T22:25:13.839Z,7.30
2022-07-29T22:27:41.714Z,8.60
2022-07-29T22:30:10.351Z,6.80
2022-07-29T22:32:38.548Z,7.80
2022-07-29T22:35:07.212Z,7.50
2022-07-29T22:37:35.087Z,10.20
2022-07-29T22:40:04.653Z,9.50
2022-07-29T22:42:33.855Z,12.30
2022-07-29T22:45:02.551Z,7.80
2022-07-29T22:47:46.349Z,8.90
2022-07-29T22:50:17.503Z,8.00
2022-07-29T22:52:47.014Z,8.00
2022-07-29T22:55:15.460Z,8.30
2022-07-29T22:57:43.189Z,8.40
2022-07-29T23:00:11.893Z,8.70
2022-07-29T23:02:41.357Z,8.80
2022-07-29T23:05:10.529Z,7.80
2022-07-29T23:07:38.289Z,8.50
2022-07-29T23:10:06.633Z,8.40
2022-07-29T23:12:34.560Z,9.10
2022-07-29T23:15:02.553Z,8.60
2022-07-29T23:17:36.027Z,9.30
2022-07-29T23:20:09.899Z,9.00
2022-07-29T23:22:37.599Z,10.10
2022-07-29T23:25:06.312Z,8.50
2022-07-29T23:27:34.060Z,8.30
2022-07-29T23:30:02.768Z,13.10
2022-07-29T23:32:30.471Z,9.00
2022-07-29T23:34:58.068Z,8.40
2022-07-29T23:37:26.845Z,8.40
2022-07-29T23:39:55.132Z,10.60
2022-07-29T23:42:22.852Z,10.40
2022-07-29T23:44:50.753Z,8.40
2022-07-29T23:47:18.354Z,10.80
2022-07-29T23:49:46.543Z,8.30
2022-07-29T23:52:14.257Z,10.30
2022-07-29T23:54:41.880Z,10.70
2022-07-29T23:57:09.535Z,10.30
2022-07-29T23:59:37.167Z,9.10
